createdAt,value
2018-01-14T00:00:07.983Z,0
2018-01-14T00:01:17.957Z,0
2018-01-14T00:02:27.667Z,0
2018-01-14T00:03:37.371Z,0
2018-01-14T00:04:47.075Z,0
2018-01-14T00:05:56.781Z,0
2018-01-14T00:07:06.226Z,0
2018-01-14T00:08:15.674Z,0
2018-01-14T00:09:25.386Z,0
2018-01-14T00:10:34.833Z,0
2018-01-14T00:11:44.541Z,0
2018-01-14T00:12:54.513Z,0
2018-01-14T00:14:04.220Z,0
2018-01-14T00:15:14.026Z,0
2018-01-14T00:16:23.731Z,0
2018-01-14T00:17:33.438Z,0
2018-01-14T00:18:43.415Z,0
2018-01-14T00:19:53.176Z,0
2018-01-14T00:21:03.146Z,0
2018-01-14T00:22:12.850Z,0
2018-01-14T00:23:22.822Z,0
2018-01-14T00:24:32.543Z,0
2018-01-14T00:25:42.516Z,0
2018-01-14T00:26:52.271Z,0
2018-01-14T00:28:01.980Z,0
2018-01-14T00:29:11.951Z,0
2018-01-14T00:30:21.667Z,0
2018-01-14T00:31:31.117Z,0
2018-01-14T00:32:40.828Z,0
2018-01-14T00:33:50.806Z,0
2018-01-14T00:35:00.531Z,0
2018-01-14T00:36:10.509Z,0
2018-01-14T00:37:20.483Z,0
2018-01-14T00:38:29.951Z,0
2018-01-14T00:39:39.662Z,0
2018-01-14T00:40:49.371Z,0
2018-01-14T00:41:59.075Z,0
2018-01-14T00:43:08.520Z,0
2018-01-14T00:44:18.335Z,0
2018-01-14T00:45:28.323Z,0
2018-01-14T00:46:38.296Z,0
2018-01-14T00:47:47.746Z,0
2018-01-14T00:48:57.720Z,0
2018-01-14T00:50:07.747Z,0
2018-01-14T00:51:17.731Z,0
2018-01-14T00:52:27.705Z,0
2018-01-14T00:53:37.680Z,0
2018-01-14T00:54:47.125Z,0
2018-01-14T00:55:56.834Z,0
2018-01-14T00:57:06.541Z,0
2018-01-14T00:58:16.518Z,0
2018-01-14T00:59:26.492Z,0
2018-01-14T01:00:36.200Z,0
2018-01-14T01:01:45.905Z,0
2018-01-14T01:02:55.615Z,0
2018-01-14T01:04:05.325Z,0
2018-01-14T01:05:15.035Z,0
2018-01-14T01:06:25.014Z,0
2018-01-14T01:07:34.723Z,0
2018-01-14T01:08:44.440Z,0
2018-01-14T01:09:54.415Z,0
2018-01-14T01:11:04.122Z,0
2018-01-14T01:12:13.826Z,0
2018-01-14T01:13:23.539Z,0
2018-01-14T01:14:33.252Z,0
2018-01-14T01:15:43.231Z,0
2018-01-14T01:16:53.212Z,0
2018-01-14T01:18:03.185Z,0
2018-01-14T01:19:13.156Z,0
2018-01-14T01:20:23.132Z,0
2018-01-14T01:21:33.104Z,0
2018-01-14T01:22:42.814Z,0
2018-01-14T01:23:52.786Z,0
2018-01-14T01:25:02.497Z,0
2018-01-14T01:26:12.479Z,0
2018-01-14T01:27:22.190Z,0
2018-01-14T01:28:32.169Z,0
2018-01-14T01:29:41.617Z,0
2018-01-14T01:30:51.326Z,0
2018-01-14T01:32:00.772Z,0
2018-01-14T01:33:10.483Z,0
2018-01-14T01:34:20.455Z,0
2018-01-14T01:35:30.164Z,0
2018-01-14T01:36:40.197Z,0
2018-01-14T01:37:50.167Z,0
2018-01-14T01:38:59.881Z,0
2018-01-14T01:40:09.328Z,0
2018-01-14T01:41:19.311Z,0
2018-01-14T01:42:28.802Z,0
2018-01-14T01:43:38.776Z,0
2018-01-14T01:44:48.490Z,0
2018-01-14T01:45:58.513Z,0
2018-01-14T01:47:08.220Z,0
2018-01-14T01:48:18.200Z,0
2018-01-14T01:49:27.913Z,0
2018-01-14T01:50:37.624Z,0
2018-01-14T01:51:47.593Z,0
2018-01-14T01:52:57.565Z,0
2018-01-14T01:54:07.270Z,0
2018-01-14T01:55:16.716Z,0
2018-01-14T01:56:26.686Z,0
2018-01-14T01:57:36.394Z,0
2018-01-14T01:58:46.360Z,0
2018-01-14T01:59:56.337Z,0
2018-01-14T02:01:06.317Z,0
2018-01-14T02:02:16.293Z,0
2018-01-14T02:03:26.008Z,0
2018-01-14T02:04:35.974Z,0
2018-01-14T02:05:45.679Z,0
2018-01-14T02:06:55.390Z,0
2018-01-14T02:08:05.096Z,0
2018-01-14T02:09:14.804Z,0
2018-01-14T02:10:24.777Z,0
2018-01-14T02:11:34.761Z,0
2018-01-14T02:12:44.730Z,0
2018-01-14T02:13:54.746Z,0
2018-01-14T02:15:04.714Z,0
2018-01-14T02:16:14.425Z,0
2018-01-14T02:17:24.398Z,0
2018-01-14T02:18:34.374Z,0
2018-01-14T02:19:44.081Z,0
2018-01-14T02:20:54.048Z,0
2018-01-14T02:22:04.018Z,0
2018-01-14T02:23:13.460Z,0
2018-01-14T02:24:23.171Z,0
2018-01-14T02:25:32.612Z,0
2018-01-14T02:26:42.582Z,0
2018-01-14T02:27:52.553Z,0
2018-01-14T02:29:02.521Z,0
2018-01-14T02:30:11.969Z,0
2018-01-14T02:31:21.679Z,0
2018-01-14T02:32:31.663Z,0
2018-01-14T02:33:41.642Z,0
2018-01-14T02:34:51.670Z,0
2018-01-14T02:36:01.377Z,0
2018-01-14T02:37:11.356Z,0
2018-01-14T02:38:21.327Z,0
2018-01-14T02:39:31.034Z,0
2018-01-14T02:40:41.022Z,0
2018-01-14T02:41:50.992Z,0
2018-01-14T02:43:00.697Z,0
2018-01-14T02:44:10.407Z,0
2018-01-14T02:45:20.395Z,0
2018-01-14T02:46:30.110Z,0
2018-01-14T02:47:39.552Z,0
2018-01-14T02:48:49.259Z,0
2018-01-14T02:49:59.228Z,0
2018-01-14T02:51:08.942Z,0
2018-01-14T02:52:18.919Z,0
2018-01-14T02:53:28.632Z,0
2018-01-14T02:54:38.350Z,0
2018-01-14T02:55:47.801Z,0
2018-01-14T02:56:57.776Z,0
2018-01-14T02:58:07.496Z,0
2018-01-14T02:59:17.206Z,0
2018-01-14T03:00:27.179Z,0
2018-01-14T03:01:36.893Z,0
2018-01-14T03:02:46.598Z,0
2018-01-14T03:03:56.723Z,0
2018-01-14T03:05:06.433Z,0
2018-01-14T03:06:15.879Z,0
2018-01-14T03:07:25.587Z,0
2018-01-14T03:08:35.297Z,0
2018-01-14T03:09:45.370Z,0
2018-01-14T03:10:55.344Z,0
2018-01-14T03:12:05.060Z,0
2018-01-14T03:13:14.775Z,0
2018-01-14T03:14:24.804Z,0
2018-01-14T03:15:34.347Z,0
2018-01-14T03:16:43.793Z,0
2018-01-14T03:17:53.816Z,0
2018-01-14T03:19:03.521Z,0
2018-01-14T03:20:13.494Z,0
2018-01-14T03:21:23.468Z,0
2018-01-14T03:22:32.907Z,0
2018-01-14T03:23:42.352Z,0
2018-01-14T03:24:52.064Z,0
2018-01-14T03:26:02.043Z,0
2018-01-14T03:27:12.062Z,0
2018-01-14T03:28:22.042Z,0
2018-01-14T03:29:31.752Z,0
2018-01-14T03:30:41.468Z,0
2018-01-14T03:31:51.446Z,0
2018-01-14T03:33:01.205Z,0
2018-01-14T03:34:11.221Z,0
2018-01-14T03:35:20.931Z,0
2018-01-14T03:36:30.373Z,0
2018-01-14T03:37:40.342Z,0
2018-01-14T03:38:50.045Z,0
2018-01-14T03:39:59.750Z,0
2018-01-14T03:41:09.456Z,0
2018-01-14T03:42:19.428Z,0
2018-01-14T03:43:28.870Z,0
2018-01-14T03:44:38.576Z,0
2018-01-14T03:45:48.554Z,0
2018-01-14T03:46:58.260Z,0
2018-01-14T03:48:07.714Z,0
2018-01-14T03:49:17.682Z,0
2018-01-14T03:50:27.437Z,0
2018-01-14T03:51:37.404Z,0
2018-01-14T03:52:47.377Z,0
2018-01-14T03:53:57.352Z,0
2018-01-14T03:55:06.795Z,0
2018-01-14T03:56:15.975Z,0
2018-01-14T03:57:25.686Z,0
2018-01-14T03:58:35.133Z,0
2018-01-14T03:59:44.578Z,0
2018-01-14T04:04:04.884Z,0
2018-01-14T04:05:14.362Z,0
2018-01-14T04:06:24.336Z,0
2018-01-14T04:07:34.304Z,0
2018-01-14T04:08:44.015Z,0
2018-01-14T04:09:53.776Z,0
2018-01-14T04:11:03.763Z,0
2018-01-14T04:12:13.208Z,0
2018-01-14T04:13:23.186Z,0
2018-01-14T04:14:32.635Z,0
2018-01-14T04:15:42.341Z,0
2018-01-14T04:16:52.318Z,0
2018-01-14T04:18:02.083Z,0
2018-01-14T04:19:12.103Z,0
2018-01-14T04:20:22.069Z,0
2018-01-14T04:21:31.774Z,0
2018-01-14T04:22:41.482Z,0
2018-01-14T04:23:51.194Z,0
2018-01-14T04:25:01.177Z,0
2018-01-14T04:26:11.148Z,0
2018-01-14T04:27:21.183Z,0
2018-01-14T04:28:30.892Z,0
2018-01-14T04:29:40.868Z,0
2018-01-14T04:30:50.896Z,0
2018-01-14T04:32:00.869Z,0
2018-01-14T04:33:10.837Z,0
2018-01-14T04:34:20.542Z,0
2018-01-14T04:35:30.251Z,0
2018-01-14T04:36:40.223Z,0
2018-01-14T04:37:50.200Z,0
2018-01-14T04:38:59.644Z,0
2018-01-14T04:40:09.623Z,0
2018-01-14T04:41:19.333Z,0
2018-01-14T04:42:29.040Z,0
2018-01-14T04:43:39.014Z,0
2018-01-14T04:44:48.770Z,0
2018-01-14T04:45:58.208Z,0
2018-01-14T04:47:07.914Z,0
2018-01-14T04:48:17.619Z,0
2018-01-14T04:49:27.323Z,0
2018-01-14T04:50:37.292Z,0
2018-01-14T04:51:47.267Z,0
2018-01-14T04:52:57.245Z,0
2018-01-14T04:54:07.247Z,0
2018-01-14T04:55:17.225Z,0
2018-01-14T04:56:26.933Z,0
2018-01-14T04:57:36.371Z,0
2018-01-14T04:58:46.348Z,0
2018-01-14T04:59:56.056Z,0
2018-01-14T05:01:05.814Z,0
2018-01-14T05:02:15.892Z,0
2018-01-14T05:03:25.334Z,0
2018-01-14T05:04:34.781Z,0
2018-01-14T05:05:44.764Z,0
2018-01-14T05:06:54.470Z,0
2018-01-14T05:08:04.440Z,0
2018-01-14T05:09:14.410Z,0
2018-01-14T05:10:24.379Z,0
2018-01-14T05:11:34.347Z,0
2018-01-14T05:12:44.319Z,0
2018-01-14T05:13:53.596Z,0
2018-01-14T05:15:03.575Z,0
2018-01-14T05:16:13.016Z,0
2018-01-14T05:17:22.459Z,0
2018-01-14T05:18:32.171Z,0
2018-01-14T05:19:41.877Z,0
2018-01-14T05:20:51.845Z,0
2018-01-14T05:22:01.894Z,0
2018-01-14T05:23:11.870Z,0
2018-01-14T05:24:21.846Z,0
2018-01-14T05:25:31.299Z,0
2018-01-14T05:26:41.271Z,0
2018-01-14T05:27:50.710Z,0
2018-01-14T05:29:00.681Z,0
2018-01-14T05:30:10.133Z,0
2018-01-14T05:31:20.117Z,0
2018-01-14T05:32:29.827Z,0
2018-01-14T05:33:39.541Z,0
2018-01-14T05:34:48.982Z,0
2018-01-14T05:35:58.953Z,0
2018-01-14T05:37:08.659Z,0
2018-01-14T05:38:18.410Z,0
2018-01-14T05:39:28.387Z,0
2018-01-14T05:40:38.432Z,0
2018-01-14T05:41:48.399Z,0
2018-01-14T05:42:58.107Z,0
2018-01-14T05:44:08.074Z,0
2018-01-14T05:45:18.047Z,0
2018-01-14T05:46:27.751Z,0
2018-01-14T05:47:37.465Z,0
2018-01-14T05:48:47.171Z,0
2018-01-14T05:49:56.878Z,0
2018-01-14T05:51:06.853Z,0
2018-01-14T05:52:16.825Z,0
2018-01-14T05:53:26.533Z,0
2018-01-14T05:54:36.552Z,0
2018-01-14T05:55:46.568Z,0
2018-01-14T05:56:56.538Z,0
2018-01-14T05:58:06.507Z,0
2018-01-14T05:59:16.217Z,0
2018-01-14T06:00:25.923Z,0
2018-01-14T06:01:35.364Z,0
2018-01-14T06:02:45.334Z,0
2018-01-14T06:03:55.301Z,0
2018-01-14T06:05:05.270Z,0
2018-01-14T06:06:15.078Z,0
2018-01-14T06:07:24.527Z,0
2018-01-14T06:08:34.500Z,0
2018-01-14T06:09:44.210Z,0
2018-01-14T06:10:54.184Z,0
2018-01-14T06:12:04.152Z,0
2018-01-14T06:13:14.131Z,0
2018-01-14T06:14:24.104Z,0
2018-01-14T06:15:34.074Z,0
2018-01-14T06:16:43.518Z,0
2018-01-14T06:17:53.224Z,0
2018-01-14T06:19:02.938Z,0
2018-01-14T06:20:12.642Z,0
2018-01-14T06:21:22.613Z,0
2018-01-14T06:22:32.583Z,0
2018-01-14T06:23:42.608Z,0
2018-01-14T06:24:52.586Z,0
2018-01-14T06:26:02.292Z,0
2018-01-14T06:27:11.999Z,0
2018-01-14T06:28:21.974Z,0
2018-01-14T06:29:31.952Z,0
2018-01-14T06:30:41.396Z,0
2018-01-14T06:31:51.369Z,0
2018-01-14T06:33:01.353Z,0
2018-01-14T06:34:11.323Z,0
2018-01-14T06:35:21.031Z,0
2018-01-14T06:36:31.008Z,0
2018-01-14T06:37:40.768Z,0
2018-01-14T06:38:50.742Z,0
2018-01-14T06:40:00.449Z,0
2018-01-14T06:41:10.158Z,0
2018-01-14T06:42:20.139Z,0
2018-01-14T06:43:29.843Z,0
2018-01-14T06:44:39.820Z,0
2018-01-14T06:45:49.791Z,0
2018-01-14T06:46:59.812Z,0
2018-01-14T06:48:09.853Z,0
2018-01-14T06:49:19.827Z,0
2018-01-14T06:50:29.536Z,0
2018-01-14T06:51:39.509Z,0
2018-01-14T06:52:48.952Z,0
2018-01-14T06:53:58.923Z,0
2018-01-14T06:55:08.896Z,0
2018-01-14T06:56:18.872Z,0
2018-01-14T06:57:28.845Z,0
2018-01-14T06:58:38.558Z,0
2018-01-14T06:59:48.536Z,0
2018-01-14T07:00:58.512Z,0
2018-01-14T07:02:08.274Z,0
2018-01-14T07:03:18.252Z,0
2018-01-14T07:04:27.959Z,0
2018-01-14T07:05:37.666Z,0
2018-01-14T07:06:47.634Z,0
2018-01-14T07:07:57.605Z,0
2018-01-14T07:09:07.319Z,0
2018-01-14T07:10:17.030Z,0
2018-01-14T07:11:27.002Z,0
2018-01-14T07:12:36.981Z,0
2018-01-14T07:13:46.958Z,0
2018-01-14T07:14:56.977Z,0
2018-01-14T07:16:07.001Z,0
2018-01-14T07:17:16.712Z,0
2018-01-14T07:18:26.680Z,0
2018-01-14T07:19:36.390Z,0
2018-01-14T07:20:46.098Z,0
2018-01-14T07:21:56.078Z,0
2018-01-14T07:23:06.056Z,0
2018-01-14T07:24:15.762Z,0
2018-01-14T07:25:25.736Z,0
2018-01-14T07:26:35.718Z,0
2018-01-14T07:27:45.688Z,0
2018-01-14T07:28:55.662Z,0
2018-01-14T07:30:05.367Z,0
2018-01-14T07:31:15.343Z,0
2018-01-14T07:32:25.318Z,0
2018-01-14T07:33:35.028Z,0
2018-01-14T07:34:45.000Z,0
2018-01-14T07:35:54.974Z,0
2018-01-14T07:37:04.682Z,0
2018-01-14T07:38:14.660Z,0
2018-01-14T07:39:24.367Z,0
2018-01-14T07:40:34.076Z,0
2018-01-14T07:41:43.536Z,0
2018-01-14T07:42:53.507Z,0
2018-01-14T07:44:03.482Z,0
2018-01-14T07:45:13.185Z,0
2018-01-14T07:46:23.157Z,0
2018-01-14T07:47:32.599Z,0
2018-01-14T07:48:42.305Z,0
2018-01-14T07:49:52.279Z,0
2018-01-14T07:51:01.990Z,0
2018-01-14T07:52:11.968Z,0
2018-01-14T07:53:21.950Z,0
2018-01-14T07:54:31.393Z,0
2018-01-14T07:55:41.363Z,0
2018-01-14T07:56:51.336Z,0
2018-01-14T07:58:01.058Z,5
2018-01-14T07:59:11.035Z,5
2018-01-14T08:00:20.799Z,5
2018-01-14T08:01:30.510Z,5
2018-01-14T08:02:40.373Z,5
2018-01-14T08:03:50.406Z,5
2018-01-14T08:05:00.386Z,5
2018-01-14T08:06:09.563Z,5
2018-01-14T08:07:19.333Z,5
2018-01-14T08:08:28.511Z,10
2018-01-14T08:09:38.219Z,10
2018-01-14T08:10:48.265Z,10
2018-01-14T08:11:58.234Z,10
2018-01-14T08:13:07.955Z,10
2018-01-14T08:14:17.663Z,10
2018-01-14T08:15:27.646Z,10
2018-01-14T08:16:37.622Z,10
2018-01-14T08:17:47.606Z,15
2018-01-14T08:18:57.313Z,15
2018-01-14T08:20:07.389Z,15
2018-01-14T08:21:17.096Z,15
2018-01-14T08:22:26.804Z,15
2018-01-14T08:23:36.787Z,15
2018-01-14T08:24:46.766Z,15
2018-01-14T08:25:56.787Z,20
2018-01-14T08:27:06.501Z,20
2018-01-14T08:28:16.482Z,20
2018-01-14T08:29:26.455Z,20
2018-01-14T08:30:36.437Z,20
2018-01-14T08:31:46.149Z,20
2018-01-14T08:32:55.594Z,25
2018-01-14T08:34:05.297Z,25
2018-01-14T08:35:14.745Z,25
2018-01-14T08:36:24.460Z,25
2018-01-14T08:37:33.907Z,25
2018-01-14T08:38:43.353Z,30
2018-01-14T08:39:53.326Z,30
2018-01-14T08:41:03.305Z,30
2018-01-14T08:42:13.019Z,30
2018-01-14T08:43:22.738Z,30
2018-01-14T08:44:32.181Z,30
2018-01-14T08:45:41.363Z,35
2018-01-14T08:46:50.808Z,35
2018-01-14T08:48:00.781Z,35
2018-01-14T08:49:10.755Z,35
2018-01-14T08:50:20.467Z,35
2018-01-14T08:51:30.206Z,35
2018-01-14T08:52:40.179Z,35
2018-01-14T08:53:49.888Z,40
2018-01-14T08:54:59.918Z,40
2018-01-14T08:56:09.639Z,40
2018-01-14T08:57:19.616Z,40
2018-01-14T08:58:29.329Z,40
2018-01-14T08:59:39.301Z,45
2018-01-14T09:00:49.090Z,45
2018-01-14T09:01:58.530Z,45
2018-01-14T09:03:08.504Z,50
2018-01-14T09:04:18.482Z,50
2018-01-14T09:05:28.455Z,50
2018-01-14T09:06:38.427Z,50
2018-01-14T09:07:48.400Z,50
2018-01-14T09:08:58.120Z,55
2018-01-14T09:10:07.834Z,55
2018-01-14T09:11:17.809Z,55
2018-01-14T09:12:27.784Z,55
2018-01-14T09:13:37.236Z,60
2018-01-14T09:14:46.957Z,60
2018-01-14T09:15:56.942Z,60
2018-01-14T09:17:06.919Z,60
2018-01-14T09:18:16.901Z,60
2018-01-14T09:19:26.873Z,60
2018-01-14T09:20:36.844Z,65
2018-01-14T09:21:46.569Z,65
2018-01-14T09:22:56.542Z,65
2018-01-14T09:24:06.516Z,65
2018-01-14T09:25:16.283Z,65
2018-01-14T09:26:26.001Z,65
2018-01-14T09:27:35.974Z,70
2018-01-14T09:28:45.944Z,70
2018-01-14T09:29:55.654Z,70
2018-01-14T09:31:05.365Z,75
2018-01-14T09:32:14.812Z,75
2018-01-14T09:33:24.524Z,70
2018-01-14T09:34:33.966Z,75
2018-01-14T09:35:43.673Z,75
2018-01-14T09:36:53.387Z,75
2018-01-14T09:38:03.096Z,75
2018-01-14T09:39:13.068Z,75
2018-01-14T09:40:23.039Z,80
2018-01-14T09:41:32.766Z,80
2018-01-14T09:42:42.747Z,80
2018-01-14T09:43:52.721Z,80
2018-01-14T09:45:02.692Z,80
2018-01-14T09:46:12.667Z,85
2018-01-14T09:47:22.371Z,85
2018-01-14T09:48:32.080Z,85
2018-01-14T09:49:42.051Z,85
2018-01-14T09:50:52.024Z,85
2018-01-14T09:52:01.731Z,90
2018-01-14T09:53:11.821Z,90
2018-01-14T09:54:21.527Z,90
2018-01-14T09:55:31.497Z,90
2018-01-14T09:56:41.477Z,90
2018-01-14T09:57:51.462Z,90
2018-01-14T09:59:01.435Z,90
2018-01-14T10:00:10.611Z,90
2018-01-14T10:01:20.315Z,90
2018-01-14T10:02:29.768Z,95
2018-01-14T10:03:39.476Z,95
2018-01-14T10:04:49.454Z,95
2018-01-14T10:05:59.176Z,95
2018-01-14T10:07:09.156Z,95
2018-01-14T10:08:19.131Z,95
2018-01-14T10:09:28.893Z,100
2018-01-14T10:10:38.604Z,100
2018-01-14T10:11:48.316Z,95
2018-01-14T10:12:58.293Z,95
2018-01-14T10:14:08.001Z,100
2018-01-14T10:15:17.708Z,100
2018-01-14T10:16:27.684Z,100
2018-01-14T10:17:37.666Z,100
2018-01-14T10:18:47.659Z,100
2018-01-14T10:19:57.101Z,100
2018-01-14T10:21:07.074Z,100
2018-01-14T10:22:16.787Z,100
2018-01-14T10:23:26.234Z,100
2018-01-14T10:24:35.992Z,100
2018-01-14T10:25:45.965Z,100
2018-01-14T10:26:55.410Z,105
2018-01-14T10:28:05.123Z,105
2018-01-14T10:29:14.829Z,105
2018-01-14T10:30:24.803Z,105
2018-01-14T10:31:34.512Z,110
2018-01-14T10:32:44.485Z,110
2018-01-14T10:33:54.248Z,110
2018-01-14T10:35:04.224Z,110
2018-01-14T10:36:13.944Z,115
2018-01-14T10:37:23.973Z,115
2018-01-14T10:38:33.681Z,115
2018-01-14T10:39:43.395Z,115
2018-01-14T10:40:53.371Z,115
2018-01-14T10:42:03.343Z,115
2018-01-14T10:43:12.268Z,115
2018-01-14T10:44:21.981Z,110
2018-01-14T10:45:31.433Z,110
2018-01-14T10:46:41.146Z,115
2018-01-14T10:47:50.854Z,115
2018-01-14T10:49:00.562Z,115
2018-01-14T10:50:10.270Z,115
2018-01-14T10:51:20.241Z,115
2018-01-14T10:52:30.234Z,120
2018-01-14T10:53:39.687Z,120
2018-01-14T10:54:49.658Z,120
2018-01-14T10:55:59.365Z,120
2018-01-14T10:57:09.345Z,120
2018-01-14T10:58:19.326Z,120
2018-01-14T10:59:29.041Z,120
2018-01-14T11:00:39.014Z,120
2018-01-14T11:01:48.725Z,120
2018-01-14T11:02:58.704Z,120
2018-01-14T11:04:08.677Z,120
2018-01-14T11:05:18.655Z,120
2018-01-14T11:06:28.627Z,120
2018-01-14T11:07:38.599Z,120
2018-01-14T11:08:48.571Z,120
2018-01-14T11:09:58.549Z,120
2018-01-14T11:11:08.524Z,120
2018-01-14T11:12:17.983Z,125
2018-01-14T11:13:27.952Z,125
2018-01-14T11:14:37.765Z,125
2018-01-14T11:15:47.472Z,130
2018-01-14T11:16:57.186Z,125
2018-01-14T11:18:07.160Z,125
2018-01-14T11:19:16.611Z,125
2018-01-14T11:20:26.650Z,125
2018-01-14T11:21:36.626Z,125
2018-01-14T11:22:46.070Z,125
2018-01-14T11:23:56.081Z,125
2018-01-14T11:25:05.525Z,125
2018-01-14T11:26:15.594Z,125
2018-01-14T11:27:25.596Z,125
2018-01-14T11:28:35.095Z,125
2018-01-14T11:29:44.808Z,125
2018-01-14T11:30:54.789Z,125
2018-01-14T11:32:04.809Z,120
2018-01-14T11:33:14.001Z,120
2018-01-14T11:34:23.712Z,120
2018-01-14T11:35:33.688Z,120
2018-01-14T11:36:43.659Z,115
2018-01-14T11:37:53.369Z,115
2018-01-14T11:39:03.081Z,115
2018-01-14T11:40:12.791Z,115
2018-01-14T11:41:22.238Z,115
2018-01-14T11:42:31.680Z,115
2018-01-14T11:43:41.706Z,110
2018-01-14T11:44:51.413Z,110
2018-01-14T11:46:01.385Z,110
2018-01-14T11:47:11.410Z,110
2018-01-14T11:48:20.857Z,110
2018-01-14T11:49:30.563Z,110
2018-01-14T11:50:40.323Z,110
2018-01-14T11:51:50.293Z,110
2018-01-14T11:53:00.013Z,110
2018-01-14T11:54:09.729Z,110
2018-01-14T11:55:19.441Z,110
2018-01-14T11:56:29.148Z,110
2018-01-14T11:57:39.159Z,110
2018-01-14T11:58:48.867Z,110
2018-01-14T11:59:58.840Z,105
2018-01-14T12:01:08.813Z,105
2018-01-14T12:02:18.531Z,105
2018-01-14T12:03:28.240Z,105
2018-01-14T12:04:38.217Z,105
2018-01-14T12:05:48.221Z,105
2018-01-14T12:06:58.217Z,105
2018-01-14T12:08:08.264Z,105
2018-01-14T12:09:17.709Z,100
2018-01-14T12:10:27.690Z,100
2018-01-14T12:11:37.666Z,100
2018-01-14T12:12:47.486Z,100
2018-01-14T12:13:57.489Z,100
2018-01-14T12:15:07.464Z,100
2018-01-14T12:16:17.438Z,100
2018-01-14T12:17:27.412Z,100
2018-01-14T12:18:37.388Z,100
2018-01-14T12:19:47.098Z,100
2018-01-14T12:20:56.814Z,100
2018-01-14T12:22:06.533Z,95
2018-01-14T12:23:16.248Z,95
2018-01-14T12:24:25.960Z,95
2018-01-14T12:25:35.669Z,95
2018-01-14T12:26:45.639Z,95
2018-01-14T12:27:55.083Z,95
2018-01-14T12:29:04.540Z,95
2018-01-14T12:30:14.041Z,90
2018-01-14T12:31:24.024Z,90
2018-01-14T12:32:33.997Z,90
2018-01-14T12:33:43.971Z,90
2018-01-14T12:34:53.943Z,90
2018-01-14T12:36:03.388Z,90
2018-01-14T12:37:13.100Z,90
2018-01-14T12:38:23.075Z,90
2018-01-14T12:39:33.192Z,85
2018-01-14T12:40:43.165Z,85
2018-01-14T12:41:53.250Z,85
2018-01-14T12:43:03.242Z,85
2018-01-14T12:44:12.750Z,85
2018-01-14T12:45:22.458Z,90
2018-01-14T12:46:32.433Z,90
2018-01-14T12:47:42.180Z,90
2018-01-14T12:48:51.887Z,90
2018-01-14T12:50:01.595Z,85
2018-01-14T12:51:11.037Z,85
2018-01-14T12:52:20.747Z,80
2018-01-14T12:53:30.718Z,80
2018-01-14T12:54:40.174Z,80
2018-01-14T12:55:49.881Z,80
2018-01-14T12:56:59.855Z,80
2018-01-14T12:58:09.566Z,80
2018-01-14T12:59:19.553Z,80
2018-01-14T13:00:29.264Z,75
2018-01-14T13:01:39.286Z,75
2018-01-14T13:02:48.991Z,75
2018-01-14T13:03:58.965Z,75
2018-01-14T13:05:07.885Z,75
2018-01-14T13:06:17.858Z,75
2018-01-14T13:07:27.838Z,75
2018-01-14T13:08:37.807Z,70
2018-01-14T13:09:47.788Z,70
2018-01-14T13:10:57.499Z,70
2018-01-14T13:12:07.469Z,70
2018-01-14T13:13:17.174Z,70
2018-01-14T13:14:26.892Z,65
2018-01-14T13:15:36.950Z,65
2018-01-14T13:16:46.936Z,65
2018-01-14T13:17:56.912Z,65
2018-01-14T13:19:06.622Z,65
2018-01-14T13:20:16.597Z,60
2018-01-14T13:21:26.303Z,60
2018-01-14T13:22:36.014Z,60
2018-01-14T13:23:45.982Z,60
2018-01-14T13:24:55.971Z,60
2018-01-14T13:26:05.943Z,60
2018-01-14T13:27:15.387Z,60
2018-01-14T13:28:25.357Z,60
2018-01-14T13:29:35.333Z,60
2018-01-14T13:30:45.307Z,60
2018-01-14T13:31:55.021Z,55
2018-01-14T13:33:04.731Z,55
2018-01-14T13:34:14.177Z,55
2018-01-14T13:35:24.152Z,55
2018-01-14T13:36:34.129Z,55
2018-01-14T13:37:43.844Z,50
2018-01-14T13:38:53.287Z,50
2018-01-14T13:40:03.260Z,50
2018-01-14T13:41:13.234Z,45
2018-01-14T13:42:22.677Z,45
2018-01-14T13:43:32.682Z,45
2018-01-14T13:44:42.439Z,45
2018-01-14T13:45:52.417Z,40
2018-01-14T13:47:02.394Z,40
2018-01-14T13:48:12.373Z,40
2018-01-14T13:49:22.374Z,40
2018-01-14T13:50:32.346Z,40
2018-01-14T13:51:42.054Z,40
2018-01-14T13:52:52.034Z,35
2018-01-14T13:54:02.010Z,35
2018-01-14T13:55:11.457Z,35
2018-01-14T13:56:21.434Z,35
2018-01-14T13:57:31.458Z,35
2018-01-14T13:58:41.174Z,30
2018-01-14T13:59:51.146Z,30
2018-01-14T14:01:01.134Z,30
2018-01-14T14:02:11.118Z,30
2018-01-14T14:03:20.982Z,30
2018-01-14T14:04:30.692Z,25
2018-01-14T14:05:40.666Z,25
2018-01-14T14:06:50.375Z,25
2018-01-14T14:08:00.081Z,25
2018-01-14T14:09:09.794Z,25
2018-01-14T14:10:19.776Z,20
2018-01-14T14:11:29.486Z,20
2018-01-14T14:12:39.191Z,20
2018-01-14T14:13:48.897Z,20
2018-01-14T14:14:58.648Z,20
2018-01-14T14:16:08.624Z,20
2018-01-14T14:17:18.616Z,20
2018-01-14T14:18:28.640Z,20
2018-01-14T14:19:38.368Z,15
2018-01-14T14:20:48.411Z,15
2018-01-14T14:21:58.383Z,15
2018-01-14T14:23:08.470Z,15
2018-01-14T14:24:18.177Z,15
2018-01-14T14:25:27.627Z,15
2018-01-14T14:26:37.602Z,15
2018-01-14T14:27:47.048Z,15
2018-01-14T14:28:57.083Z,10
2018-01-14T14:30:07.060Z,10
2018-01-14T14:31:17.035Z,10
2018-01-14T14:32:27.116Z,10
2018-01-14T14:33:37.088Z,10
2018-01-14T14:34:46.800Z,10
2018-01-14T14:35:56.771Z,10
2018-01-14T14:37:06.486Z,10
2018-01-14T14:38:16.201Z,10
2018-01-14T14:39:25.910Z,5
2018-01-14T14:40:35.679Z,5
2018-01-14T14:41:45.395Z,5
2018-01-14T14:42:55.365Z,5
2018-01-14T14:44:05.074Z,5
2018-01-14T14:45:14.780Z,5
2018-01-14T14:46:24.485Z,5
2018-01-14T14:47:34.195Z,5
2018-01-14T14:48:43.907Z,5
2018-01-14T14:49:53.612Z,0
2018-01-14T14:51:03.326Z,0
2018-01-14T14:52:13.030Z,0
2018-01-14T14:53:23.004Z,0
2018-01-14T14:54:32.723Z,0
2018-01-14T14:55:42.431Z,0
2018-01-14T14:56:52.402Z,0
2018-01-14T14:58:02.111Z,0
2018-01-14T14:59:12.094Z,0
2018-01-14T15:00:21.802Z,0
2018-01-14T15:01:31.509Z,0
2018-01-14T15:02:41.487Z,0
2018-01-14T15:03:51.244Z,0
2018-01-14T15:05:01.217Z,0
2018-01-14T15:06:10.928Z,0
2018-01-14T15:07:20.899Z,0
2018-01-14T15:08:30.867Z,0
2018-01-14T15:09:40.571Z,0
2018-01-14T15:10:50.317Z,0
2018-01-14T15:11:59.815Z,0
2018-01-14T15:13:09.790Z,0
2018-01-14T15:14:19.763Z,0
2018-01-14T15:15:29.249Z,0
2018-01-14T15:16:39.002Z,0
2018-01-14T15:17:48.506Z,0
2018-01-14T15:18:58.578Z,0
2018-01-14T15:20:08.550Z,0
2018-01-14T15:21:18.520Z,0
2018-01-14T15:22:28.521Z,0
2018-01-14T15:23:38.489Z,0
2018-01-14T15:24:48.209Z,0
2018-01-14T15:25:58.184Z,0
2018-01-14T15:27:07.643Z,0
2018-01-14T15:28:17.613Z,0
2018-01-14T15:29:27.583Z,0
2018-01-14T15:30:37.619Z,0
2018-01-14T15:31:47.590Z,0
2018-01-14T15:32:57.560Z,0
2018-01-14T15:34:07.531Z,0
2018-01-14T15:35:17.503Z,0
2018-01-14T15:36:27.208Z,0
2018-01-14T15:37:36.653Z,0
2018-01-14T15:38:46.634Z,0
2018-01-14T15:39:55.819Z,0
2018-01-14T15:41:05.529Z,0
2018-01-14T15:42:15.498Z,0
2018-01-14T15:43:25.204Z,0
2018-01-14T15:44:34.912Z,0
2018-01-14T15:45:44.668Z,0
2018-01-14T15:46:54.638Z,0
2018-01-14T15:48:04.610Z,0
2018-01-14T15:49:14.588Z,0
2018-01-14T15:50:24.557Z,0
2018-01-14T15:51:34.534Z,0
2018-01-14T15:52:43.712Z,0
2018-01-14T15:53:53.686Z,0
2018-01-14T15:55:03.129Z,0
2018-01-14T15:56:13.102Z,0
2018-01-14T15:57:23.085Z,0
2018-01-14T15:58:32.810Z,0
2018-01-14T15:59:42.785Z,0
2018-01-14T16:00:52.491Z,0
2018-01-14T16:02:02.469Z,0
2018-01-14T16:03:12.177Z,0
2018-01-14T16:04:22.154Z,0
2018-01-14T16:05:31.873Z,0
2018-01-14T16:06:41.587Z,0
2018-01-14T16:07:51.333Z,0
2018-01-14T16:09:01.046Z,0
2018-01-14T16:10:11.022Z,0
2018-01-14T16:11:21.039Z,0
2018-01-14T16:12:30.797Z,0
2018-01-14T16:13:40.776Z,0
2018-01-14T16:14:50.482Z,0
2018-01-14T16:15:59.923Z,0
2018-01-14T16:17:09.378Z,0
2018-01-14T16:18:19.353Z,0
2018-01-14T16:19:29.062Z,0
2018-01-14T16:20:38.771Z,0
2018-01-14T16:21:48.479Z,0
2018-01-14T16:22:58.187Z,0
2018-01-14T16:24:08.157Z,0
2018-01-14T16:25:17.863Z,0
2018-01-14T16:26:27.599Z,0
2018-01-14T16:27:37.045Z,0
2018-01-14T16:28:47.017Z,0
2018-01-14T16:29:56.992Z,0
2018-01-14T16:31:06.699Z,0
2018-01-14T16:32:16.676Z,0
2018-01-14T16:33:26.647Z,0
2018-01-14T16:34:36.357Z,0
2018-01-14T16:35:46.065Z,0
2018-01-14T16:36:56.072Z,0
2018-01-14T16:38:05.777Z,0
2018-01-14T16:39:15.486Z,0
2018-01-14T16:40:25.198Z,0
2018-01-14T16:41:35.180Z,0
2018-01-14T16:42:44.632Z,0
2018-01-14T16:43:54.607Z,0
2018-01-14T16:45:04.587Z,0
2018-01-14T16:46:14.028Z,0
2018-01-14T16:47:24.001Z,0
2018-01-14T16:48:33.442Z,0
2018-01-14T16:49:43.154Z,0
2018-01-14T16:50:52.594Z,0
2018-01-14T16:52:02.564Z,0
2018-01-14T16:53:12.276Z,0
2018-01-14T16:54:22.245Z,0
2018-01-14T16:55:31.970Z,0